createdAt,value
2018-01-16T00:00:07.025Z,985.25
2018-01-16T00:01:07.041Z,985.26
2018-01-16T00:02:07.058Z,985.22
2018-01-16T00:03:07.075Z,985.24
2018-01-16T00:04:07.093Z,985.23
2018-01-16T00:05:07.109Z,985.22
2018-01-16T00:06:07.137Z,985.25
2018-01-16T00:07:07.152Z,985.27
2018-01-16T00:08:07.162Z,985.23
2018-01-16T00:09:07.177Z,985.22
2018-01-16T00:10:07.195Z,985.24
2018-01-16T00:11:07.212Z,985.20
2018-01-16T00:12:07.229Z,985.21
2018-01-16T00:13:07.245Z,985.23
2018-01-16T00:14:07.263Z,985.23
2018-01-16T00:15:07.280Z,985.20
2018-01-16T00:16:07.298Z,985.16
2018-01-16T00:17:07.314Z,985.23
2018-01-16T00:18:07.332Z,985.22
2018-01-16T00:19:07.348Z,985.22
2018-01-16T00:20:07.366Z,985.23
2018-01-16T00:21:07.382Z,985.29
2018-01-16T00:22:07.399Z,985.21
2018-01-16T00:23:07.416Z,985.28
2018-01-16T00:24:07.434Z,985.34
2018-01-16T00:25:07.451Z,985.30
2018-01-16T00:26:07.467Z,985.37
2018-01-16T00:27:07.485Z,985.33
2018-01-16T00:28:07.501Z,985.32
2018-01-16T00:29:07.519Z,985.36
2018-01-16T00:30:07.535Z,985.36
2018-01-16T00:31:07.552Z,985.35
2018-01-16T00:32:07.569Z,985.38
2018-01-16T00:33:07.587Z,985.42
2018-01-16T00:34:07.605Z,985.35
2018-01-16T00:35:07.621Z,985.41
2018-01-16T00:36:07.638Z,985.45
2018-01-16T00:37:07.655Z,985.43
2018-01-16T00:38:07.673Z,985.38
2018-01-16T00:39:07.689Z,985.39
2018-01-16T00:40:07.706Z,985.45
2018-01-16T00:41:08.124Z,985.44
2018-01-16T00:42:07.740Z,985.43
2018-01-16T00:43:07.758Z,985.52
2018-01-16T00:44:07.775Z,985.42
2018-01-16T00:45:07.792Z,985.49
2018-01-16T00:46:07.809Z,985.48
2018-01-16T00:47:07.826Z,985.53
2018-01-16T00:48:07.844Z,985.52
2018-01-16T00:49:07.860Z,985.53
2018-01-16T00:50:07.878Z,985.55
2018-01-16T00:51:07.895Z,985.63
2018-01-16T00:52:07.913Z,985.63
2018-01-16T00:53:08.030Z,985.66
2018-01-16T00:54:07.947Z,985.64
2018-01-16T00:55:07.964Z,985.67
2018-01-16T00:56:08.232Z,985.60
2018-01-16T00:57:07.998Z,985.62
2018-01-16T00:58:08.016Z,985.70
2018-01-16T00:59:08.033Z,985.67
2018-01-16T01:00:08.051Z,985.69
2018-01-16T01:01:08.069Z,985.74
2018-01-16T01:02:08.085Z,985.63
2018-01-16T01:03:08.102Z,985.72
2018-01-16T01:04:08.120Z,985.71
2018-01-16T01:05:08.136Z,985.60
2018-01-16T01:06:08.153Z,985.64
2018-01-16T01:07:08.172Z,985.64
2018-01-16T01:08:08.195Z,985.65
2018-01-16T01:09:08.205Z,985.82
2018-01-16T01:10:08.223Z,985.81
2018-01-16T01:11:08.240Z,985.85
2018-01-16T01:12:08.259Z,985.91
2018-01-16T01:13:08.274Z,985.93
2018-01-16T01:14:08.291Z,985.96
2018-01-16T01:15:08.309Z,985.94
2018-01-16T01:16:08.326Z,986.07
2018-01-16T01:17:08.492Z,986.02
2018-01-16T01:18:08.360Z,985.94
2018-01-16T01:19:08.377Z,985.90
2018-01-16T01:20:08.395Z,985.94
2018-01-16T01:21:08.411Z,985.91
2018-01-16T01:22:08.428Z,985.90
2018-01-16T01:23:08.446Z,985.92
2018-01-16T01:24:08.463Z,985.92
2018-01-16T01:25:08.480Z,986.00
2018-01-16T01:26:08.497Z,985.93
2018-01-16T01:27:08.514Z,986.00
2018-01-16T01:28:08.532Z,985.95
2018-01-16T01:29:08.548Z,986.00
2018-01-16T01:30:08.566Z,986.04
2018-01-16T01:31:08.583Z,986.01
2018-01-16T01:32:08.601Z,986.04
2018-01-16T01:33:08.617Z,986.11
2018-01-16T01:34:08.634Z,986.00
2018-01-16T01:35:08.650Z,985.90
2018-01-16T01:36:08.668Z,985.88
2018-01-16T01:37:08.685Z,985.96
2018-01-16T01:38:08.701Z,985.85
2018-01-16T01:39:08.719Z,986.01
2018-01-16T01:40:08.736Z,986.01
2018-01-16T01:41:08.752Z,985.98
2018-01-16T01:42:08.769Z,986.03
2018-01-16T01:43:08.787Z,986.04
2018-01-16T01:44:08.804Z,986.06
2018-01-16T01:45:08.820Z,986.00
2018-01-16T01:46:08.837Z,986.01
2018-01-16T01:47:08.854Z,985.94
2018-01-16T01:48:08.871Z,986.02
2018-01-16T01:49:08.888Z,985.96
2018-01-16T01:50:08.905Z,985.97
2018-01-16T01:51:08.922Z,986.01
2018-01-16T01:52:08.940Z,985.90
2018-01-16T01:53:08.955Z,985.93
2018-01-16T01:54:08.973Z,985.92
2018-01-16T01:55:08.990Z,985.87
2018-01-16T01:56:09.007Z,985.74
2018-01-16T01:57:09.024Z,985.76
2018-01-16T01:58:09.041Z,985.77
2018-01-16T01:59:09.058Z,985.77
2018-01-16T02:00:09.076Z,985.73
2018-01-16T02:01:09.091Z,985.79
2018-01-16T02:02:09.110Z,985.85
2018-01-16T02:03:09.126Z,985.89
2018-01-16T02:04:09.143Z,985.86
2018-01-16T02:05:09.160Z,985.94
2018-01-16T02:06:09.177Z,985.92
2018-01-16T02:07:09.194Z,985.92
2018-01-16T02:08:09.211Z,985.91
2018-01-16T02:09:09.227Z,985.89
2018-01-16T02:10:09.246Z,985.92
2018-01-16T02:11:09.262Z,985.86
2018-01-16T02:12:09.280Z,985.86
2018-01-16T02:13:09.296Z,985.81
2018-01-16T02:14:09.313Z,985.77
2018-01-16T02:15:09.330Z,985.83
2018-01-16T02:16:09.348Z,985.82
2018-01-16T02:17:09.364Z,985.87
2018-01-16T02:18:09.381Z,985.79
2018-01-16T02:19:09.417Z,985.80
2018-01-16T02:20:09.416Z,985.74
2018-01-16T02:21:09.432Z,985.72
2018-01-16T02:22:09.450Z,985.68
2018-01-16T02:23:09.467Z,985.73
2018-01-16T02:24:09.484Z,985.62
2018-01-16T02:25:09.501Z,985.72
2018-01-16T02:26:09.518Z,985.70
2018-01-16T02:27:09.535Z,985.65
2018-01-16T02:28:09.552Z,985.68
2018-01-16T02:29:09.569Z,985.71
2018-01-16T02:30:09.588Z,985.67
2018-01-16T02:31:09.604Z,985.62
2018-01-16T02:32:09.621Z,985.61
2018-01-16T02:33:09.638Z,985.62
2018-01-16T02:34:09.655Z,985.53
2018-01-16T02:35:09.674Z,985.57
2018-01-16T02:36:09.690Z,985.49
2018-01-16T02:37:09.705Z,985.49
2018-01-16T02:38:09.723Z,985.49
2018-01-16T02:39:09.741Z,985.50
2018-01-16T02:40:09.758Z,985.55
2018-01-16T02:41:09.774Z,985.56
2018-01-16T02:42:09.792Z,985.54
2018-01-16T02:43:09.808Z,985.43
2018-01-16T02:44:09.825Z,985.50
2018-01-16T02:45:09.843Z,985.58
2018-01-16T02:46:09.859Z,985.53
2018-01-16T02:47:09.876Z,985.46
2018-01-16T02:48:09.893Z,985.49
2018-01-16T02:49:09.910Z,985.43
2018-01-16T02:50:09.927Z,985.40
2018-01-16T02:51:09.944Z,985.40
2018-01-16T02:52:09.961Z,985.39
2018-01-16T02:53:09.977Z,985.33
2018-01-16T02:54:09.994Z,985.32
2018-01-16T02:55:10.012Z,985.26
2018-01-16T02:56:10.029Z,985.24
2018-01-16T02:57:10.646Z,985.27
2018-01-16T02:58:10.062Z,985.24
2018-01-16T02:59:10.079Z,985.19
2018-01-16T03:00:10.096Z,985.17
2018-01-16T03:01:10.112Z,985.16
2018-01-16T03:02:10.130Z,985.21
2018-01-16T03:03:10.146Z,985.13
2018-01-16T03:04:10.163Z,985.16
2018-01-16T03:05:10.181Z,985.12
2018-01-16T03:06:10.197Z,985.07
2018-01-16T03:07:10.214Z,985.07
2018-01-16T03:08:10.231Z,985.00
2018-01-16T03:09:10.247Z,985.04
2018-01-16T03:10:10.264Z,985.11
2018-01-16T03:11:10.281Z,985.10
2018-01-16T03:12:10.299Z,985.07
2018-01-16T03:13:10.314Z,985.10
2018-01-16T03:14:10.332Z,985.17
2018-01-16T03:15:10.349Z,985.17
2018-01-16T03:16:10.366Z,985.26
2018-01-16T03:17:10.382Z,985.15
2018-01-16T03:18:10.499Z,985.13
2018-01-16T03:19:10.416Z,985.15
2018-01-16T03:20:10.433Z,985.03
2018-01-16T03:21:10.449Z,985.00
2018-01-16T03:22:10.466Z,985.00
2018-01-16T03:23:10.483Z,985.00
2018-01-16T03:24:10.500Z,984.94
2018-01-16T03:25:10.517Z,984.88
2018-01-16T03:26:10.533Z,984.89
2018-01-16T03:27:10.550Z,984.92
2018-01-16T03:28:10.567Z,984.84
2018-01-16T03:29:10.583Z,984.75
2018-01-16T03:30:10.601Z,984.70
2018-01-16T03:31:10.618Z,984.68
2018-01-16T03:32:10.634Z,984.68
2018-01-16T03:33:10.650Z,984.66
2018-01-16T03:34:10.667Z,984.65
2018-01-16T03:35:10.684Z,984.71
2018-01-16T03:36:10.701Z,984.71
2018-01-16T03:37:10.718Z,984.75
2018-01-16T03:38:10.734Z,984.75
2018-01-16T03:39:10.751Z,984.82
2018-01-16T03:40:10.768Z,984.81
2018-01-16T03:41:10.784Z,984.82
2018-01-16T03:42:10.801Z,984.77
2018-01-16T03:43:10.818Z,984.81
2018-01-16T03:44:10.835Z,984.87
2018-01-16T03:45:10.851Z,984.76
2018-01-16T03:46:10.868Z,984.71
2018-01-16T03:47:10.885Z,984.73
2018-01-16T03:48:10.901Z,984.78
2018-01-16T03:49:10.917Z,984.84
2018-01-16T03:50:10.935Z,984.69
2018-01-16T03:51:10.952Z,984.73
2018-01-16T03:52:10.974Z,984.66
2018-01-16T03:53:10.984Z,984.65
2018-01-16T03:54:11.001Z,984.67
2018-01-16T03:55:11.018Z,984.65
2018-01-16T03:56:11.035Z,984.64
2018-01-16T03:57:11.051Z,984.60
2018-01-16T03:58:11.068Z,984.55
2018-01-16T03:59:11.085Z,984.55
2018-01-16T04:00:11.102Z,984.47
2018-01-16T04:01:11.118Z,984.49
2018-01-16T04:02:11.134Z,984.40
2018-01-16T04:03:11.151Z,984.33
2018-01-16T04:04:11.168Z,984.28
2018-01-16T04:05:11.184Z,984.27
2018-01-16T04:06:11.201Z,984.28
2018-01-16T04:07:11.218Z,984.28
2018-01-16T04:08:11.235Z,984.25
2018-01-16T04:09:11.251Z,984.24
2018-01-16T04:10:11.268Z,984.34
2018-01-16T04:11:11.285Z,984.33
2018-01-16T04:12:11.303Z,984.38
2018-01-16T04:13:11.319Z,984.34
2018-01-16T04:14:11.335Z,984.32
2018-01-16T04:15:11.352Z,984.28
2018-01-16T04:16:11.368Z,984.25
2018-01-16T04:17:11.384Z,984.24
2018-01-16T04:18:11.401Z,984.28
2018-01-16T04:19:11.418Z,984.24
2018-01-16T04:20:11.435Z,984.19
2018-01-16T04:21:11.450Z,984.20
2018-01-16T04:22:11.468Z,984.14
2018-01-16T04:23:11.484Z,984.17
2018-01-16T04:24:11.501Z,984.13
2018-01-16T04:25:11.517Z,984.12
2018-01-16T04:26:11.534Z,984.11
2018-01-16T04:27:11.557Z,984.10
2018-01-16T04:28:11.569Z,984.13
2018-01-16T04:29:11.583Z,984.14
2018-01-16T04:30:11.600Z,984.11
2018-01-16T04:31:11.617Z,984.12
2018-01-16T04:32:11.634Z,984.03
2018-01-16T04:33:11.651Z,983.99
2018-01-16T04:34:11.667Z,983.98
2018-01-16T04:35:11.684Z,984.19
2018-01-16T04:36:11.701Z,984.12
2018-01-16T04:37:11.717Z,983.99
2018-01-16T04:38:11.735Z,984.09
2018-01-16T04:39:11.752Z,984.01
2018-01-16T04:40:11.768Z,984.00
2018-01-16T04:41:11.784Z,984.00
2018-01-16T04:42:11.802Z,983.93
2018-01-16T04:43:11.819Z,983.94
2018-01-16T04:44:11.836Z,984.01
2018-01-16T04:45:11.851Z,983.93
2018-01-16T04:46:11.869Z,984.03
2018-01-16T04:47:11.889Z,983.97
2018-01-16T04:48:11.902Z,983.93
2018-01-16T04:49:11.919Z,983.94
2018-01-16T04:50:11.939Z,983.94
2018-01-16T04:51:11.952Z,984.09
2018-01-16T04:52:12.019Z,984.06
2018-01-16T04:53:11.986Z,984.03
2018-01-16T04:54:12.003Z,984.05
2018-01-16T04:55:12.028Z,983.89
2018-01-16T04:56:12.037Z,983.90
2018-01-16T04:57:12.053Z,983.85
2018-01-16T04:58:12.070Z,983.90
2018-01-16T04:59:12.087Z,983.91
2018-01-16T05:00:12.254Z,983.98
2018-01-16T05:01:12.119Z,983.94
2018-01-16T05:02:12.136Z,983.90
2018-01-16T05:03:12.154Z,983.92
2018-01-16T05:04:12.170Z,983.91
2018-01-16T05:05:12.186Z,983.87
2018-01-16T05:06:12.203Z,983.84
2018-01-16T05:07:12.220Z,983.86
2018-01-16T05:08:12.237Z,983.77
2018-01-16T05:09:12.253Z,983.79
2018-01-16T05:10:12.270Z,983.89
2018-01-16T05:11:12.286Z,983.86
2018-01-16T05:12:12.553Z,983.87
2018-01-16T05:13:12.319Z,983.88
2018-01-16T05:14:12.336Z,983.84
2018-01-16T05:15:12.353Z,983.82
2018-01-16T05:16:12.370Z,983.81
2018-01-16T05:17:13.137Z,983.83
2018-01-16T05:18:12.403Z,983.81
2018-01-16T05:19:12.419Z,983.83
2018-01-16T05:20:12.436Z,983.77
2018-01-16T05:21:12.453Z,983.80
2018-01-16T05:22:12.470Z,983.81
2018-01-16T05:23:12.486Z,983.71
2018-01-16T05:24:12.503Z,983.68
2018-01-16T05:25:12.519Z,983.70
2018-01-16T05:26:12.536Z,983.72
2018-01-16T05:27:12.553Z,983.75
2018-01-16T05:28:12.570Z,983.77
2018-01-16T05:29:12.585Z,983.75
2018-01-16T05:30:12.653Z,983.74
2018-01-16T05:31:12.619Z,983.76
2018-01-16T05:32:12.636Z,983.69
2018-01-16T05:33:12.652Z,983.72
2018-01-16T05:34:12.669Z,983.78
2018-01-16T05:35:12.685Z,983.76
2018-01-16T05:36:12.703Z,983.80
2018-01-16T05:37:12.719Z,983.79
2018-01-16T05:38:12.735Z,983.78
2018-01-16T05:39:12.752Z,983.85
2018-01-16T05:40:12.769Z,983.82
2018-01-16T05:41:12.785Z,983.79
2018-01-16T05:42:12.801Z,983.83
2018-01-16T05:43:12.819Z,983.87
2018-01-16T05:44:12.835Z,983.86
2018-01-16T05:45:12.851Z,983.84
2018-01-16T05:46:12.868Z,983.79
2018-01-16T05:47:12.885Z,983.84
2018-01-16T05:48:12.901Z,983.82
2018-01-16T05:49:12.917Z,983.82
2018-01-16T05:50:12.934Z,983.90
2018-01-16T05:51:12.951Z,983.92
2018-01-16T05:52:12.973Z,983.90
2018-01-16T05:53:12.983Z,983.84
2018-01-16T05:54:13.000Z,983.87
2018-01-16T05:55:13.018Z,983.79
2018-01-16T05:56:13.034Z,983.80
2018-01-16T05:57:13.052Z,983.80
2018-01-16T05:58:13.066Z,983.82
2018-01-16T05:59:13.083Z,983.76
2018-01-16T06:00:13.105Z,983.72
2018-01-16T06:01:13.116Z,983.74
2018-01-16T06:02:13.133Z,983.74
2018-01-16T06:03:13.149Z,983.73
2018-01-16T06:04:13.166Z,983.77
2018-01-16T06:05:13.181Z,983.74
2018-01-16T06:06:13.199Z,983.68
2018-01-16T06:07:13.215Z,983.63
2018-01-16T06:08:13.236Z,983.69
2018-01-16T06:09:13.248Z,983.76
2018-01-16T06:10:13.265Z,983.77
2018-01-16T06:11:13.282Z,983.75
2018-01-16T06:12:13.334Z,983.77
2018-01-16T06:13:13.314Z,983.76
2018-01-16T06:14:13.331Z,983.85
2018-01-16T06:15:13.348Z,983.77
2018-01-16T06:16:13.365Z,983.80
2018-01-16T06:17:13.380Z,983.77
2018-01-16T06:18:13.398Z,983.81
2018-01-16T06:19:13.417Z,983.78
2018-01-16T06:20:13.447Z,983.77
2018-01-16T06:21:13.447Z,983.81
2018-01-16T06:22:13.463Z,983.76
2018-01-16T06:23:13.481Z,983.74
2018-01-16T06:24:13.498Z,983.74
2018-01-16T06:25:13.514Z,983.82
2018-01-16T06:26:13.533Z,983.75
2018-01-16T06:27:13.547Z,983.72
2018-01-16T06:28:13.574Z,983.73
2018-01-16T06:29:13.581Z,983.72
2018-01-16T06:30:13.599Z,983.70
2018-01-16T06:31:13.615Z,983.66
2018-01-16T06:32:13.632Z,983.66
2018-01-16T06:33:13.648Z,983.72
2018-01-16T06:34:13.665Z,983.75
2018-01-16T06:35:13.682Z,983.76
2018-01-16T06:36:13.701Z,983.80
2018-01-16T06:37:13.715Z,983.80
2018-01-16T06:38:13.732Z,983.78
2018-01-16T06:39:13.749Z,983.83
2018-01-16T06:40:13.766Z,983.76
2018-01-16T06:41:13.787Z,983.72
2018-01-16T06:42:13.800Z,983.72
2018-01-16T06:43:13.816Z,983.73
2018-01-16T06:44:13.834Z,983.73
2018-01-16T06:45:13.850Z,983.73
2018-01-16T06:46:13.867Z,983.72
2018-01-16T06:47:13.884Z,983.75
2018-01-16T06:48:13.901Z,983.77
2018-01-16T06:49:13.917Z,983.80
2018-01-16T06:50:13.934Z,983.79
2018-01-16T06:51:13.951Z,983.75
2018-01-16T06:52:13.968Z,983.81
2018-01-16T06:53:13.984Z,983.79
2018-01-16T06:54:14.002Z,983.79
2018-01-16T06:55:14.018Z,983.81
2018-01-16T06:56:14.036Z,983.79
2018-01-16T06:57:14.052Z,983.84
2018-01-16T06:58:14.069Z,983.84
2018-01-16T06:59:14.086Z,983.84
2018-01-16T07:00:14.103Z,983.79
2018-01-16T07:01:14.120Z,983.79
2018-01-16T07:02:14.137Z,983.84
2018-01-16T07:03:14.153Z,983.82
2018-01-16T07:04:14.171Z,983.83
2018-01-16T07:05:14.221Z,983.88
2018-01-16T07:06:14.203Z,983.80
2018-01-16T07:07:14.221Z,983.84
2018-01-16T07:08:14.238Z,983.90
2018-01-16T07:09:14.253Z,983.83
2018-01-16T07:10:14.271Z,983.78
2018-01-16T07:11:14.288Z,983.82
2018-01-16T07:12:14.305Z,983.81
2018-01-16T07:13:14.321Z,983.83
2018-01-16T07:14:14.338Z,983.88
2018-01-16T07:15:14.355Z,983.77
2018-01-16T07:16:14.372Z,983.88
2018-01-16T07:17:14.389Z,983.87
2018-01-16T07:18:14.406Z,983.89
2018-01-16T07:19:14.424Z,983.85
2018-01-16T07:20:14.440Z,983.89
2018-01-16T07:21:14.456Z,983.75
2018-01-16T07:22:14.475Z,983.76
2018-01-16T07:23:14.492Z,983.76
2018-01-16T07:24:14.508Z,983.72
2018-01-16T07:25:14.524Z,983.76
2018-01-16T07:26:14.541Z,983.69
2018-01-16T07:27:14.558Z,983.77
2018-01-16T07:28:14.575Z,983.77
2018-01-16T07:29:14.591Z,983.83
2018-01-16T07:30:14.608Z,983.80
2018-01-16T07:31:14.625Z,983.86
2018-01-16T07:32:14.642Z,983.82
2018-01-16T07:33:14.658Z,983.82
2018-01-16T07:34:14.675Z,983.83
2018-01-16T07:35:15.293Z,983.81
2018-01-16T07:36:14.710Z,983.79
2018-01-16T07:37:14.726Z,983.83
2018-01-16T07:38:14.743Z,983.81
2018-01-16T07:39:14.760Z,983.84
2018-01-16T07:40:14.777Z,983.86
2018-01-16T07:41:14.794Z,983.86
2018-01-16T07:42:14.811Z,983.89
2018-01-16T07:43:14.828Z,983.83
2018-01-16T07:44:14.845Z,983.86
2018-01-16T07:45:14.861Z,983.85
2018-01-16T07:46:14.881Z,983.87
2018-01-16T07:47:14.896Z,983.81
2018-01-16T07:48:14.924Z,983.76
2018-01-16T07:49:14.930Z,983.81
2018-01-16T07:50:14.947Z,983.83
2018-01-16T07:51:14.964Z,983.86
2018-01-16T07:52:14.981Z,983.85
2018-01-16T07:53:14.997Z,983.90
2018-01-16T07:54:15.015Z,983.89
2018-01-16T07:55:15.032Z,983.87
2018-01-16T07:56:15.049Z,983.89
2018-01-16T07:57:15.065Z,983.88
2018-01-16T07:58:15.082Z,983.84
2018-01-16T07:59:15.147Z,983.83
2018-01-16T08:00:15.117Z,983.91
2018-01-16T08:01:15.133Z,983.88
2018-01-16T08:02:15.150Z,983.86
2018-01-16T08:03:15.167Z,983.85
2018-01-16T08:04:15.185Z,983.83
2018-01-16T08:05:15.203Z,983.86
2018-01-16T08:06:15.219Z,983.85
2018-01-16T08:07:15.237Z,983.81
2018-01-16T08:08:15.253Z,983.81
2018-01-16T08:09:15.269Z,983.84
2018-01-16T08:10:15.288Z,983.75
2018-01-16T08:11:15.304Z,983.74
2018-01-16T08:12:15.321Z,983.70
2018-01-16T08:13:15.337Z,983.78
2018-01-16T08:14:15.355Z,983.69
2018-01-16T08:15:15.372Z,983.74
2018-01-16T08:16:15.397Z,983.77
2018-01-16T08:17:15.406Z,983.79
2018-01-16T08:18:15.423Z,983.78
2018-01-16T08:19:15.441Z,983.73
2018-01-16T08:20:15.463Z,983.88
2018-01-16T08:21:15.474Z,983.94
2018-01-16T08:22:15.491Z,983.98
2018-01-16T08:23:15.509Z,984.04
2018-01-16T08:24:15.527Z,983.98
2018-01-16T08:25:15.542Z,984.09
2018-01-16T08:26:15.560Z,984.20
2018-01-16T08:27:15.577Z,984.11
2018-01-16T08:28:15.594Z,984.27
2018-01-16T08:29:15.617Z,984.15
2018-01-16T08:30:15.627Z,984.14
2018-01-16T08:31:15.644Z,984.28
2018-01-16T08:32:15.661Z,984.26
2018-01-16T08:33:15.677Z,984.31
2018-01-16T08:34:15.694Z,984.32
2018-01-16T08:35:15.712Z,984.28
2018-01-16T08:36:15.729Z,984.23
2018-01-16T08:37:15.745Z,984.21
2018-01-16T08:38:15.761Z,984.19
2018-01-16T08:39:15.778Z,984.27
2018-01-16T08:40:15.795Z,984.37
2018-01-16T08:41:15.810Z,984.42
2018-01-16T08:42:15.828Z,984.40
2018-01-16T08:43:15.843Z,984.46
2018-01-16T08:44:15.861Z,984.43
2018-01-16T08:45:15.876Z,984.35
2018-01-16T08:46:15.892Z,984.38
2018-01-16T08:47:15.911Z,984.29
2018-01-16T08:48:15.925Z,984.22
2018-01-16T08:49:15.941Z,984.29
2018-01-16T08:50:15.957Z,984.18
2018-01-16T08:51:15.980Z,984.07
2018-01-16T08:52:15.993Z,984.09
2018-01-16T08:53:16.006Z,984.14
2018-01-16T08:54:16.020Z,984.07
2018-01-16T08:55:16.037Z,984.10
2018-01-16T08:56:16.053Z,983.99
2018-01-16T08:57:16.068Z,983.98
2018-01-16T08:58:16.087Z,983.99
2018-01-16T08:59:16.100Z,983.92
2018-01-16T09:00:16.116Z,983.96
2018-01-16T09:01:16.132Z,983.99
2018-01-16T09:02:16.151Z,983.99
2018-01-16T09:03:16.164Z,984.01
2018-01-16T09:04:16.210Z,983.97
2018-01-16T09:05:16.195Z,983.90
2018-01-16T09:06:16.212Z,984.00
2018-01-16T09:07:16.227Z,983.94
2018-01-16T09:08:16.244Z,983.87
2018-01-16T09:09:16.264Z,983.89
2018-01-16T09:10:16.275Z,983.91
2018-01-16T09:11:16.291Z,983.95
2018-01-16T09:12:16.309Z,984.00
2018-01-16T09:13:16.324Z,984.01
2018-01-16T09:14:16.339Z,983.97
2018-01-16T09:15:16.358Z,983.94
2018-01-16T09:16:16.372Z,984.05
2018-01-16T09:17:16.386Z,984.03
2018-01-16T09:18:16.428Z,984.00
2018-01-16T09:19:16.419Z,983.99
2018-01-16T09:20:16.435Z,983.94
2018-01-16T09:21:16.451Z,983.98
2018-01-16T09:22:16.467Z,984.00
2018-01-16T09:23:16.484Z,984.00
2018-01-16T09:24:16.500Z,983.97
2018-01-16T09:25:16.516Z,983.96
2018-01-16T09:26:16.531Z,984.03
2018-01-16T09:27:16.551Z,984.13
2018-01-16T09:28:16.565Z,984.11
2018-01-16T09:29:16.579Z,984.06
2018-01-16T09:30:16.595Z,984.15
2018-01-16T09:31:16.611Z,984.12
2018-01-16T09:32:16.626Z,984.07
2018-01-16T09:33:16.642Z,984.11
2018-01-16T09:34:16.658Z,984.08
2018-01-16T09:35:16.674Z,984.11
2018-01-16T09:36:16.691Z,984.18
2018-01-16T09:37:16.705Z,984.30
2018-01-16T09:38:16.721Z,984.31
2018-01-16T09:39:16.738Z,984.26
2018-01-16T09:40:16.754Z,984.25
2018-01-16T09:41:16.768Z,984.20
2018-01-16T09:42:16.783Z,984.11
2018-01-16T09:43:16.800Z,984.12
2018-01-16T09:44:16.815Z,984.13
2018-01-16T09:45:16.830Z,984.12
2018-01-16T09:46:16.851Z,984.10
2018-01-16T09:47:16.861Z,984.12
2018-01-16T09:48:16.877Z,984.11
2018-01-16T09:49:16.891Z,984.14
2018-01-16T09:50:16.907Z,984.16
2018-01-16T09:51:16.923Z,984.26
2018-01-16T09:52:16.939Z,984.30
2018-01-16T09:53:16.953Z,984.35
2018-01-16T09:54:16.968Z,984.49
2018-01-16T09:55:16.985Z,984.51
2018-01-16T09:56:17.001Z,984.58
2018-01-16T09:57:17.015Z,984.62
2018-01-16T09:58:17.030Z,984.66
2018-01-16T09:59:17.047Z,984.72
2018-01-16T10:00:17.061Z,984.72
2018-01-16T10:01:17.076Z,984.79
2018-01-16T10:02:17.091Z,984.81
2018-01-16T10:03:17.108Z,984.79
2018-01-16T10:04:17.122Z,984.82
2018-01-16T10:05:17.137Z,984.78
2018-01-16T10:06:17.153Z,984.77
2018-01-16T10:07:17.169Z,984.65
2018-01-16T10:08:17.184Z,984.30
2018-01-16T10:09:17.201Z,984.04
2018-01-16T10:10:17.215Z,984.20
2018-01-16T10:11:17.230Z,984.19
2018-01-16T10:12:17.246Z,984.15
2018-01-16T10:13:17.261Z,984.30
2018-01-16T10:14:17.276Z,984.30
2018-01-16T10:15:17.294Z,984.31
2018-01-16T10:16:17.307Z,984.31
2018-01-16T10:17:17.322Z,984.30
2018-01-16T10:18:17.338Z,984.39
2018-01-16T10:19:17.354Z,984.39
2018-01-16T10:20:17.369Z,984.42
2018-01-16T10:21:17.383Z,984.38
2018-01-16T10:22:17.400Z,984.36
2018-01-16T10:23:17.414Z,984.39
2018-01-16T10:24:17.430Z,984.31
2018-01-16T10:25:17.445Z,984.42
2018-01-16T10:26:17.462Z,984.45
2018-01-16T10:27:17.476Z,984.51
2018-01-16T10:28:17.493Z,984.49
2018-01-16T10:29:17.507Z,984.49
2018-01-16T10:30:17.524Z,984.46
2018-01-16T10:31:17.539Z,984.46
2018-01-16T10:32:17.555Z,984.48
2018-01-16T10:33:17.570Z,984.49
2018-01-16T10:34:17.585Z,984.49
2018-01-16T10:35:17.605Z,984.54
2018-01-16T10:36:17.618Z,984.52
2018-01-16T10:37:17.633Z,984.59
2018-01-16T10:38:17.649Z,984.63
2018-01-16T10:39:17.664Z,984.70
2018-01-16T10:40:17.681Z,984.77
2018-01-16T10:41:17.716Z,984.79
2018-01-16T10:42:17.712Z,984.75
2018-01-16T10:43:17.728Z,984.77
2018-01-16T10:44:17.746Z,984.71
2018-01-16T10:45:17.760Z,984.75
2018-01-16T10:46:17.777Z,984.79
2018-01-16T10:47:17.791Z,984.80
2018-01-16T10:48:17.808Z,984.81
2018-01-16T10:49:17.824Z,984.82
2018-01-16T10:50:17.839Z,984.85
2018-01-16T10:51:17.856Z,984.83
2018-01-16T10:52:17.871Z,984.91
2018-01-16T10:53:17.886Z,984.89
2018-01-16T10:54:17.902Z,984.87
2018-01-16T10:55:18.022Z,984.87
2018-01-16T10:56:17.934Z,984.95
2018-01-16T10:57:17.980Z,984.87
2018-01-16T10:58:17.970Z,984.98
2018-01-16T10:59:17.982Z,985.00
2018-01-16T11:00:18.002Z,984.96
2018-01-16T11:01:18.013Z,985.02
2018-01-16T11:02:18.033Z,985.05
2018-01-16T11:03:18.045Z,985.03
2018-01-16T11:04:18.062Z,985.07
2018-01-16T11:05:18.082Z,985.05
2018-01-16T11:06:18.093Z,985.08
2018-01-16T11:07:18.110Z,985.08
2018-01-16T11:08:18.125Z,985.13
2018-01-16T11:09:18.141Z,985.14
2018-01-16T11:10:18.158Z,985.20
2018-01-16T11:11:18.173Z,985.19
2018-01-16T11:12:18.191Z,985.24
2018-01-16T11:13:18.204Z,985.31
2018-01-16T11:14:18.221Z,985.24
2018-01-16T11:15:18.238Z,985.22
2018-01-16T11:16:18.254Z,985.33
2018-01-16T11:17:18.270Z,985.33
2018-01-16T11:18:18.285Z,985.34
2018-01-16T11:19:18.301Z,985.33
2018-01-16T11:20:18.320Z,985.33
2018-01-16T11:21:18.334Z,985.33
2018-01-16T11:22:18.350Z,985.35
2018-01-16T11:23:18.366Z,985.34
2018-01-16T11:24:18.383Z,985.30
2018-01-16T11:25:18.398Z,985.31
2018-01-16T11:26:18.415Z,985.32
2018-01-16T11:27:18.430Z,985.33
2018-01-16T11:28:18.493Z,985.35
2018-01-16T11:29:18.463Z,985.33
2018-01-16T11:30:18.480Z,985.33
2018-01-16T11:31:18.496Z,985.35
2018-01-16T11:32:18.512Z,985.28
2018-01-16T11:33:18.527Z,985.35
2018-01-16T11:34:18.544Z,985.30
2018-01-16T11:35:18.560Z,985.41
2018-01-16T11:36:18.576Z,985.40
2018-01-16T11:37:18.592Z,985.33
2018-01-16T11:38:18.608Z,985.40
2018-01-16T11:39:18.626Z,985.38
2018-01-16T11:40:18.642Z,985.38
2018-01-16T11:41:18.657Z,985.30
2018-01-16T11:42:18.676Z,985.43
2018-01-16T11:43:18.690Z,985.41
2018-01-16T11:44:18.707Z,985.44
2018-01-16T11:45:18.876Z,985.49
2018-01-16T11:46:18.739Z,985.52
2018-01-16T11:47:18.755Z,985.56
2018-01-16T11:48:18.772Z,985.54
2018-01-16T11:49:18.788Z,985.57
2018-01-16T11:50:18.818Z,985.54
2018-01-16T11:51:18.821Z,985.57
2018-01-16T11:52:18.837Z,985.56
2018-01-16T11:53:18.853Z,985.62
2018-01-16T11:54:18.871Z,985.60
2018-01-16T11:55:18.887Z,985.51
2018-01-16T11:56:18.904Z,985.60
2018-01-16T11:57:18.920Z,985.62
2018-01-16T11:58:18.936Z,985.58
2018-01-16T11:59:18.953Z,985.49
2018-01-16T12:00:18.970Z,985.54
2018-01-16T12:01:18.986Z,985.50
2018-01-16T12:02:19.003Z,985.50
2018-01-16T12:03:19.020Z,985.55
2018-01-16T12:04:19.037Z,985.54
2018-01-16T12:05:19.053Z,985.53
2018-01-16T12:06:19.074Z,985.46
2018-01-16T12:07:19.086Z,985.56
2018-01-16T12:08:19.104Z,985.61
2018-01-16T12:09:19.120Z,985.62
2018-01-16T12:10:19.136Z,985.59
2018-01-16T12:11:19.153Z,985.56
2018-01-16T12:12:19.170Z,985.58
2018-01-16T12:13:19.186Z,985.59
2018-01-16T12:14:19.203Z,985.53
2018-01-16T12:15:19.221Z,985.53
2018-01-16T12:16:19.241Z,985.50
2018-01-16T12:17:19.252Z,985.54
2018-01-16T12:18:19.270Z,985.47
2018-01-16T12:19:19.286Z,985.53
2018-01-16T12:20:19.303Z,985.46
2018-01-16T12:21:19.320Z,985.51
2018-01-16T12:22:19.337Z,985.51
2018-01-16T12:23:19.360Z,985.50
2018-01-16T12:24:19.371Z,985.43
2018-01-16T12:25:19.387Z,985.45
2018-01-16T12:26:19.404Z,985.52
2018-01-16T12:27:19.421Z,985.53
2018-01-16T12:28:19.438Z,985.53